Airfield :
LOGIN :

Register | Disclaimer

   EN    FR    IT 

 










Legend :    VFR   Marginal VFR   IFR   Intensive IFR   Very Intensive IFR
Visi :
Ceiling :
>= 8 km
>= 3000ft
5 to 8 km
1000 to 3000 ft
1500m to 5 km
500 to 1000 ft
800 to 1500m
200 to 500 ft
< 800m
< 200 ft
Symbols :   Thunderstorms  Fog  Heavy snow  Heavy precipitations  Wind > 20 kt
SIGMETs :     Misc.  Thunderstorms  Icing  Turbulence  Mountain Waves  Volcanic Ashes







- Airport Elevation : 1674 ft
- IATA code : BRN


LSZB - Bern Belp

CURRENT METAR :
  • 242220Z AUTO 00000KT CAVOK 18/18 Q1019

EXPIRED METARs :
  • 242150Z AUTO VRB02KT CAVOK 19/19 Q1019
  • 242120Z AUTO VRB01KT CAVOK 19/19 Q1019
  • 242050Z AUTO VRB02KT CAVOK 20/19 Q1019
  • 242020Z VRB03KT CAVOK 21/20 Q1019 NOSIG
  • 241950Z 00000KT CAVOK 23/19 Q1018 NOSIG
  • 241920Z VRB02KT CAVOK 25/19 Q1018 NOSIG

TAF TAF LSZB
Valid from the 24 at 15:00 until the 25 at 00:00 UTC


241425Z 2415/2424 29008KT CAVOK
TEMPO 2415/2418 05008KT
BECMG 2416/2418 VRB03KT
ATIS : +41 22 417 40 76
No reported NOTAMs for that airfield.



MET'MAP, your aeronautical weather chart ! - Copyright ORBIFLY December 2007 - Disclaimer

ORBIFLY MET'MAP TEAM :

Programming & Development : Alexandra Zaïnal
Concept & Development : Baudouin d'Aumeries
Co-Development & Prog : Marc-Olivier Méhu
Technical & hardware support : Manuel Goepfert

Contact : metmap@orbifly.com




SOURCES & CREDITS :

   NOAA